sensor_id;sensor_type;location;lat;lon;timestamp;pressure;altitude;pressure_sealevel;temperature;humidity
13041;BME280;6587;42.728;23.288;2023-12-20T00:01:01;95752.38;;;-1.27;89.03
13041;BME280;6587;42.728;23.288;2023-12-20T00:03:28;95750.66;;;-1.32;88.69
13041;BME280;6587;42.728;23.288;2023-12-20T00:05:55;95742.47;;;-1.17;89.26
13041;BME280;6587;42.728;23.288;2023-12-20T00:08:22;95747.81;;;-1.22;89.14
13041;BME280;6587;42.728;23.288;2023-12-20T00:10:51;95750.97;;;-1.11;88.73
13041;BME280;6587;42.728;23.288;2023-12-20T00:13:24;95740.03;;;-1.13;89.01
13041;BME280;6587;42.728;23.288;2023-12-20T00:15:58;95741.81;;;-1.22;88.27
13041;BME280;6587;42.728;23.288;2023-12-20T00:18:27;95726.28;;;-1.27;88.18
13041;BME280;6587;42.728;23.288;2023-12-20T00:20:54;95732.53;;;-1.50;88.25
13041;BME280;6587;42.728;23.288;2023-12-20T00:23:21;95728.25;;;-1.46;87.85
13041;BME280;6587;42.728;23.288;2023-12-20T00:25:48;95723.53;;;-1.44;88.12
13041;BME280;6587;42.728;23.288;2023-12-20T00:28:15;95714.09;;;-1.32;88.49
13041;BME280;6587;42.728;23.288;2023-12-20T00:30:42;95706.47;;;-1.64;87.78
13041;BME280;6587;42.728;23.288;2023-12-20T00:33:10;95706.47;;;-1.64;88.58
13041;BME280;6587;42.728;23.288;2023-12-20T00:35:37;95704.72;;;-1.69;88.78
13041;BME280;6587;42.728;23.288;2023-12-20T00:38:04;95706.00;;;-1.66;88.56
13041;BME280;6587;42.728;23.288;2023-12-20T00:40:32;95711.66;;;-1.64;88.54
13041;BME280;6587;42.728;23.288;2023-12-20T00:42:59;95710.50;;;-1.58;88.16
13041;BME280;6587;42.728;23.288;2023-12-20T00:45:26;95701.94;;;-1.72;87.69
13041;BME280;6587;42.728;23.288;2023-12-20T00:47:53;95699.69;;;-1.65;87.91
13041;BME280;6587;42.728;23.288;2023-12-20T00:50:21;95701.44;;;-1.61;88.21
13041;BME280;6587;42.728;23.288;2023-12-20T00:52:48;95696.94;;;-1.46;87.86
13041;BME280;6587;42.728;23.288;2023-12-20T00:55:15;95692.31;;;-1.49;87.27
13041;BME280;6587;42.728;23.288;2023-12-20T00:57:42;95694.84;;;-1.58;86.88
13041;BME280;6587;42.728;23.288;2023-12-20T01:00:10;95694.88;;;-1.72;87.54
13041;BME280;6587;42.728;23.288;2023-12-20T01:02:38;95684.88;;;-1.56;87.12
13041;BME280;6587;42.728;23.288;2023-12-20T01:05:06;95684.56;;;-1.41;87.42
13041;BME280;6587;42.728;23.288;2023-12-20T01:07:36;95685.13;;;-1.44;86.40
13041;BME280;6587;42.728;23.288;2023-12-20T01:10:03;95686.75;;;-1.70;86.73
13041;BME280;6587;42.728;23.288;2023-12-20T01:12:30;95672.72;;;-1.61;86.52
13041;BME280;6587;42.728;23.288;2023-12-20T01:14:57;95664.06;;;-2.05;87.65
13041;BME280;6587;42.728;23.288;2023-12-20T01:17:24;95672.94;;;-2.33;87.68
13041;BME280;6587;42.728;23.288;2023-12-20T01:19:51;95670.72;;;-2.26;88.13
13041;BME280;6587;42.728;23.288;2023-12-20T01:22:18;95661.16;;;-2.17;88.81
13041;BME280;6587;42.728;23.288;2023-12-20T01:24:46;95659.97;;;-1.98;88.69
13041;BME280;6587;42.728;23.288;2023-12-20T01:27:13;95660.56;;;-2.14;88.67
13041;BME280;6587;42.728;23.288;2023-12-20T01:29:40;95660.47;;;-2.09;88.96
13041;BME280;6587;42.728;23.288;2023-12-20T01:32:07;95646.69;;;-1.74;88.82
13041;BME280;6587;42.728;23.288;2023-12-20T01:34:34;95644.94;;;-1.57;88.58
13041;BME280;6587;42.728;23.288;2023-12-20T01:37:00;95646.25;;;-1.45;88.07
13041;BME280;6587;42.728;23.288;2023-12-20T01:39:28;95645.22;;;-1.44;87.42
13041;BME280;6587;42.728;23.288;2023-12-20T01:41:57;95643.34;;;-1.44;87.04
13041;BME280;6587;42.728;23.288;2023-12-20T01:44:24;95629.19;;;-1.29;86.88
13041;BME280;6587;42.728;23.288;2023-12-20T01:46:52;95629.84;;;-1.24;86.63
13041;BME280;6587;42.728;23.288;2023-12-20T01:49:19;95620.81;;;-1.18;86.48
13041;BME280;6587;42.728;23.288;2023-12-20T01:51:47;95624.47;;;-1.19;86.50
13041;BME280;6587;42.728;23.288;2023-12-20T01:54:15;95617.91;;;-1.16;86.40
13041;BME280;6587;42.728;23.288;2023-12-20T01:56:42;95616.03;;;-1.16;86.56
13041;BME280;6587;42.728;23.288;2023-12-20T01:59:11;95614.56;;;-1.08;85.40
13041;BME280;6587;42.728;23.288;2023-12-20T02:01:38;95617.38;;;-1.27;86.07
13041;BME280;6587;42.728;23.288;2023-12-20T02:04:05;95611.00;;;-1.34;87.13
13041;BME280;6587;42.728;23.288;2023-12-20T02:06:33;95607.28;;;-1.20;86.89
13041;BME280;6587;42.728;23.288;2023-12-20T02:09:00;95607.88;;;-1.23;86.95
13041;BME280;6587;42.728;23.288;2023-12-20T02:11:27;95604.91;;;-1.30;86.73
13041;BME280;6587;42.728;23.288;2023-12-20T02:13:55;95609.84;;;-1.28;87.45
13041;BME280;6587;42.728;23.288;2023-12-20T02:16:23;95599.63;;;-1.38;87.31
13041;BME280;6587;42.728;23.288;2023-12-20T02:18:50;95603.38;;;-1.31;87.63
13041;BME280;6587;42.728;23.288;2023-12-20T02:21:17;95594.00;;;-1.32;87.05
13041;BME280;6587;42.728;23.288;2023-12-20T02:23:45;95587.81;;;-1.36;88.24
13041;BME280;6587;42.728;23.288;2023-12-20T02:26:12;95592.09;;;-1.40;88.73
13041;BME280;6587;42.728;23.288;2023-12-20T02:28:39;95594.66;;;-1.48;88.92
13041;BME280;6587;42.728;23.288;2023-12-20T02:31:07;95586.78;;;-1.35;89.20
13041;BME280;6587;42.728;23.288;2023-12-20T02:33:33;95584.91;;;-1.34;89.89
13041;BME280;6587;42.728;23.288;2023-12-20T02:36:00;95576.66;;;-1.28;90.25
13041;BME280;6587;42.728;23.288;2023-12-20T02:38:27;95576.78;;;-1.33;89.62
13041;BME280;6587;42.728;23.288;2023-12-20T02:40:55;95575.06;;;-1.37;89.74
13041;BME280;6587;42.728;23.288;2023-12-20T02:43:22;95574.38;;;-1.51;90.20
13041;BME280;6587;42.728;23.288;2023-12-20T02:45:49;95569.50;;;-1.44;90.14
13041;BME280;6587;42.728;23.288;2023-12-20T02:48:16;95564.53;;;-1.54;91.02
13041;BME280;6587;42.728;23.288;2023-12-20T02:50:43;95567.66;;;-1.44;91.13
13041;BME280;6587;42.728;23.288;2023-12-20T02:53:10;95569.22;;;-1.43;91.41
13041;BME280;6587;42.728;23.288;2023-12-20T02:55:36;95574.66;;;-1.31;91.37
13041;BME280;6587;42.728;23.288;2023-12-20T02:58:05;95574.53;;;-1.26;91.27
13041;BME280;6587;42.728;23.288;2023-12-20T03:00:32;95567.63;;;-1.22;91.06
13041;BME280;6587;42.728;23.288;2023-12-20T03:02:58;95569.19;;;-1.21;91.41
13041;BME280;6587;42.728;23.288;2023-12-20T03:05:26;95568.09;;;-1.20;91.01
13041;BME280;6587;42.728;23.288;2023-12-20T03:07:53;95573.13;;;-1.54;90.88
13041;BME280;6587;42.728;23.288;2023-12-20T03:10:20;95570.75;;;-1.86;91.73
13041;BME280;6587;42.728;23.288;2023-12-20T03:12:47;95562.22;;;-1.78;92.13
13041;BME280;6587;42.728;23.288;2023-12-20T03:15:15;95556.72;;;-1.77;92.63
13041;BME280;6587;42.728;23.288;2023-12-20T03:17:42;95560.81;;;-1.84;92.63
13041;BME280;6587;42.728;23.288;2023-12-20T03:20:09;95554.88;;;-1.76;92.95
13041;BME280;6587;42.728;23.288;2023-12-20T03:22:36;95552.97;;;-1.84;92.99
13041;BME280;6587;42.728;23.288;2023-12-20T03:25:03;95557.66;;;-1.73;93.58
13041;BME280;6587;42.728;23.288;2023-12-20T03:27:30;95549.97;;;-1.78;93.50
13041;BME280;6587;42.728;23.288;2023-12-20T03:29:57;95549.19;;;-1.78;93.56
13041;BME280;6587;42.728;23.288;2023-12-20T03:32:25;95557.19;;;-1.75;93.57
13041;BME280;6587;42.728;23.288;2023-12-20T03:34:52;95551.44;;;-1.85;93.64
13041;BME280;6587;42.728;23.288;2023-12-20T03:37:19;95545.75;;;-1.87;93.74
13041;BME280;6587;42.728;23.288;2023-12-20T03:39:46;95543.25;;;-1.92;93.66
13041;BME280;6587;42.728;23.288;2023-12-20T03:42:13;95545.75;;;-1.87;94.14
13041;BME280;6587;42.728;23.288;2023-12-20T03:44:40;95540.03;;;-1.89;93.95
13041;BME280;6587;42.728;23.288;2023-12-20T03:47:07;95532.22;;;-1.89;94.35
13041;BME280;6587;42.728;23.288;2023-12-20T03:49:35;95535.78;;;-1.85;94.48
13041;BME280;6587;42.728;23.288;2023-12-20T03:52:04;95537.91;;;-2.09;94.38
13041;BME280;6587;42.728;23.288;2023-12-20T03:54:34;95540.28;;;-1.99;94.55
13041;BME280;6587;42.728;23.288;2023-12-20T03:57:01;95537.69;;;-1.99;94.44
13041;BME280;6587;42.728;23.288;2023-12-20T03:59:28;95536.41;;;-2.24;94.36
13041;BME280;6587;42.728;23.288;2023-12-20T04:01:55;95536.91;;;-2.00;94.83
13041;BME280;6587;42.728;23.288;2023-12-20T04:04:22;95529.47;;;-1.93;94.89
13041;BME280;6587;42.728;23.288;2023-12-20T04:06:50;95531.28;;;-1.93;94.82
13041;BME280;6587;42.728;23.288;2023-12-20T04:09:17;95523.69;;;-1.81;94.89
13041;BME280;6587;42.728;23.288;2023-12-20T04:11:44;95517.44;;;-2.16;94.56
13041;BME280;6587;42.728;23.288;2023-12-20T04:14:11;95522.56;;;-1.89;94.98
13041;BME280;6587;42.728;23.288;2023-12-20T04:16:39;95514.97;;;-1.77;95.34
13041;BME280;6587;42.728;23.288;2023-12-20T04:19:06;95510.03;;;-1.56;95.05
13041;BME280;6587;42.728;23.288;2023-12-20T04:21:33;95512.41;;;-1.68;94.73
13041;BME280;6587;42.728;23.288;2023-12-20T04:24:01;95507.78;;;-1.71;94.64
13041;BME280;6587;42.728;23.288;2023-12-20T04:26:28;95508.50;;;-1.79;94.64
13041;BME280;6587;42.728;23.288;2023-12-20T04:28:56;95504.31;;;-1.58;94.66
13041;BME280;6587;42.728;23.288;2023-12-20T04:31:22;95512.84;;;-1.44;94.43
13041;BME280;6587;42.728;23.288;2023-12-20T04:33:49;95503.81;;;-1.69;94.02
13041;BME280;6587;42.728;23.288;2023-12-20T04:36:16;95503.31;;;-2.01;94.11
13041;BME280;6587;42.728;23.288;2023-12-20T04:38:43;95503.66;;;-1.94;94.36
13041;BME280;6587;42.728;23.288;2023-12-20T04:41:12;95498.88;;;-2.01;94.43
13041;BME280;6587;42.728;23.288;2023-12-20T04:43:41;95495.38;;;-1.96;93.99
13041;BME280;6587;42.728;23.288;2023-12-20T04:46:08;95496.97;;;-2.09;94.17
13041;BME280;6587;42.728;23.288;2023-12-20T04:48:35;95504.19;;;-2.06;94.49
13041;BME280;6587;42.728;23.288;2023-12-20T04:51:02;95496.78;;;-1.90;94.81
13041;BME280;6587;42.728;23.288;2023-12-20T04:53:29;95491.50;;;-1.99;94.98
13041;BME280;6587;42.728;23.288;2023-12-20T04:55:55;95491.94;;;-2.05;94.56
13041;BME280;6587;42.728;23.288;2023-12-20T04:58:24;95490.63;;;-2.16;94.41
13041;BME280;6587;42.728;23.288;2023-12-20T05:00:51;95491.97;;;-2.19;94.66
13041;BME280;6587;42.728;23.288;2023-12-20T05:03:17;95486.94;;;-2.15;94.43
13041;BME280;6587;42.728;23.288;2023-12-20T05:05:45;95484.31;;;-2.37;94.38
13041;BME280;6587;42.728;23.288;2023-12-20T05:08:12;95486.44;;;-2.39;94.51
13041;BME280;6587;42.728;23.288;2023-12-20T05:10:39;95479.75;;;-2.54;94.84
13041;BME280;6587;42.728;23.288;2023-12-20T05:13:06;95472.59;;;-2.48;95.06
13041;BME280;6587;42.728;23.288;2023-12-20T05:15:34;95483.50;;;-2.46;94.99
13041;BME280;6587;42.728;23.288;2023-12-20T05:18:01;95482.75;;;-2.60;95.11
13041;BME280;6587;42.728;23.288;2023-12-20T05:20:28;95480.56;;;-2.67;95.42
13041;BME280;6587;42.728;23.288;2023-12-20T05:22:55;95482.38;;;-2.67;95.54
13041;BME280;6587;42.728;23.288;2023-12-20T05:25:22;95474.84;;;-2.55;95.69
13041;BME280;6587;42.728;23.288;2023-12-20T05:27:49;95471.06;;;-2.63;95.44
13041;BME280;6587;42.728;23.288;2023-12-20T05:30:17;95475.66;;;-2.46;95.37
13041;BME280;6587;42.728;23.288;2023-12-20T05:32:45;95466.63;;;-2.62;95.16
13041;BME280;6587;42.728;23.288;2023-12-20T05:35:12;95463.03;;;-2.53;95.12
13041;BME280;6587;42.728;23.288;2023-12-20T05:37:39;95463.69;;;-2.47;95.09
13041;BME280;6587;42.728;23.288;2023-12-20T05:40:06;95459.91;;;-2.63;95.25
13041;BME280;6587;42.728;23.288;2023-12-20T05:42:35;95448.66;;;-2.50;94.93
13041;BME280;6587;42.728;23.288;2023-12-20T05:45:03;95460.34;;;-2.26;95.39
13041;BME280;6587;42.728;23.288;2023-12-20T05:47:31;95459.16;;;-2.77;95.05
13041;BME280;6587;42.728;23.288;2023-12-20T05:50:00;95456.91;;;-2.70;95.03
13041;BME280;6587;42.728;23.288;2023-12-20T05:52:26;95452.53;;;-2.48;95.19
13041;BME280;6587;42.728;23.288;2023-12-20T05:54:53;95457.44;;;-2.46;95.30
13041;BME280;6587;42.728;23.288;2023-12-20T05:57:21;95445.22;;;-2.37;94.99
13041;BME280;6587;42.728;23.288;2023-12-20T05:59:48;95447.94;;;-2.42;94.63
13041;BME280;6587;42.728;23.288;2023-12-20T06:02:15;95448.78;;;-2.33;94.78
13041;BME280;6587;42.728;23.288;2023-12-20T06:04:42;95445.22;;;-2.37;94.47
13041;BME280;6587;42.728;23.288;2023-12-20T06:07:12;95444.00;;;-2.40;94.19
13041;BME280;6587;42.728;23.288;2023-12-20T06:09:39;95439.78;;;-2.27;94.55
13041;BME280;6587;42.728;23.288;2023-12-20T06:12:07;95446.72;;;-2.23;94.32
13041;BME280;6587;42.728;23.288;2023-12-20T06:14:34;95450.53;;;-2.29;94.18
13041;BME280;6587;42.728;23.288;2023-12-20T06:17:01;95454.13;;;-2.16;94.23
13041;BME280;6587;42.728;23.288;2023-12-20T06:19:28;95441.13;;;-2.08;93.71
13041;BME280;6587;42.728;23.288;2023-12-20T06:21:55;95451.75;;;-2.04;93.54
13041;BME280;6587;42.728;23.288;2023-12-20T06:24:23;95452.94;;;-2.10;93.45
13041;BME280;6587;42.728;23.288;2023-12-20T06:26:53;95446.47;;;-2.13;93.77
13041;BME280;6587;42.728;23.288;2023-12-20T06:29:20;95447.59;;;-2.05;93.14
13041;BME280;6587;42.728;23.288;2023-12-20T06:31:47;95439.31;;;-2.07;92.77
13041;BME280;6587;42.728;23.288;2023-12-20T06:34:14;95449.25;;;-2.09;92.83
13041;BME280;6587;42.728;23.288;2023-12-20T06:36:41;95446.53;;;-2.04;92.74
13041;BME280;6587;42.728;23.288;2023-12-20T06:39:07;95445.34;;;-2.42;92.54
13041;BME280;6587;42.728;23.288;2023-12-20T06:41:36;95441.31;;;-2.48;92.51
13041;BME280;6587;42.728;23.288;2023-12-20T06:44:03;95443.19;;;-2.62;93.26
13041;BME280;6587;42.728;23.288;2023-12-20T06:46:30;95442.94;;;-2.74;93.21
13041;BME280;6587;42.728;23.288;2023-12-20T06:48:57;95442.75;;;-2.78;93.67
13041;BME280;6587;42.728;23.288;2023-12-20T06:51:23;95432.78;;;-2.62;93.75
13041;BME280;6587;42.728;23.288;2023-12-20T06:53:51;95424.44;;;-2.86;94.16
13041;BME280;6587;42.728;23.288;2023-12-20T06:56:18;95424.22;;;-2.76;94.61
13041;BME280;6587;42.728;23.288;2023-12-20T06:58:46;95420.16;;;-2.25;94.80
13041;BME280;6587;42.728;23.288;2023-12-20T07:01:13;95421.63;;;-1.88;94.61
13041;BME280;6587;42.728;23.288;2023-12-20T07:03:41;95423.53;;;-1.72;93.37
13041;BME280;6587;42.728;23.288;2023-12-20T07:06:08;95426.03;;;-1.58;93.26
13041;BME280;6587;42.728;23.288;2023-12-20T07:08:35;95420.50;;;-1.57;92.65
13041;BME280;6587;42.728;23.288;2023-12-20T07:11:02;95418.53;;;-1.51;92.03
13041;BME280;6587;42.728;23.288;2023-12-20T07:13:29;95424.75;;;-1.69;91.93
13041;BME280;6587;42.728;23.288;2023-12-20T07:15:58;95422.16;;;-1.69;91.36
13041;BME280;6587;42.728;23.288;2023-12-20T07:18:25;95416.97;;;-1.61;91.10
13041;BME280;6587;42.728;23.288;2023-12-20T07:20:51;95422.75;;;-1.72;90.53
13041;BME280;6587;42.728;23.288;2023-12-20T07:23:19;95422.31;;;-1.66;90.68
13041;BME280;6587;42.728;23.288;2023-12-20T07:25:47;95408.53;;;-1.58;90.71
13041;BME280;6587;42.728;23.288;2023-12-20T07:28:14;95410.19;;;-1.22;90.99
13041;BME280;6587;42.728;23.288;2023-12-20T07:30:40;95404.81;;;-1.26;90.22
13041;BME280;6587;42.728;23.288;2023-12-20T07:33:09;95404.63;;;-1.38;89.94
13041;BME280;6587;42.728;23.288;2023-12-20T07:35:37;95408.28;;;-1.47;89.58
13041;BME280;6587;42.728;23.288;2023-12-20T07:38:04;95409.84;;;-1.77;89.96
13041;BME280;6587;42.728;23.288;2023-12-20T07:40:32;95408.25;;;-1.56;90.06
13041;BME280;6587;42.728;23.288;2023-12-20T07:42:58;95400.63;;;-1.35;89.34
13041;BME280;6587;42.728;23.288;2023-12-20T07:45:25;95404.03;;;-1.35;89.27
13041;BME280;6587;42.728;23.288;2023-12-20T07:47:52;95402.47;;;-1.36;89.21
13041;BME280;6587;42.728;23.288;2023-12-20T07:50:21;95400.28;;;-1.51;88.64
13041;BME280;6587;42.728;23.288;2023-12-20T07:52:48;95397.25;;;-1.36;89.43
13041;BME280;6587;42.728;23.288;2023-12-20T07:55:14;95397.13;;;-1.22;88.62
13041;BME280;6587;42.728;23.288;2023-12-20T07:57:41;95393.31;;;-1.16;88.10
13041;BME280;6587;42.728;23.288;2023-12-20T08:00:09;95390.25;;;-1.10;87.68
13041;BME280;6587;42.728;23.288;2023-12-20T08:02:36;95393.63;;;-1.01;87.60
13041;BME280;6587;42.728;23.288;2023-12-20T08:05:03;95391.31;;;-0.94;87.13
13041;BME280;6587;42.728;23.288;2023-12-20T08:07:32;95392.63;;;-1.39;87.25
13041;BME280;6587;42.728;23.288;2023-12-20T08:09:59;95386.22;;;-1.72;87.68
13041;BME280;6587;42.728;23.288;2023-12-20T08:12:26;95391.78;;;-1.65;87.90
13041;BME280;6587;42.728;23.288;2023-12-20T08:14:53;95386.66;;;-1.31;88.29
13041;BME280;6587;42.728;23.288;2023-12-20T08:17:20;95385.75;;;-1.35;87.46
13041;BME280;6587;42.728;23.288;2023-12-20T08:19:48;95377.03;;;-1.05;88.08
13041;BME280;6587;42.728;23.288;2023-12-20T08:22:15;95372.28;;;-0.69;87.20
13041;BME280;6587;42.728;23.288;2023-12-20T08:24:43;95373.63;;;-0.37;86.26
13041;BME280;6587;42.728;23.288;2023-12-20T08:27:10;95375.03;;;-0.40;85.65
13041;BME280;6587;42.728;23.288;2023-12-20T08:29:37;95374.44;;;-0.79;85.60
13041;BME280;6587;42.728;23.288;2023-12-20T08:32:04;95363.81;;;-0.83;85.96
13041;BME280;6587;42.728;23.288;2023-12-20T08:34:31;95362.28;;;-1.01;85.79
13041;BME280;6587;42.728;23.288;2023-12-20T08:36:59;95367.38;;;-0.62;85.12
13041;BME280;6587;42.728;23.288;2023-12-20T08:39:25;95347.69;;;-0.51;84.75
13041;BME280;6587;42.728;23.288;2023-12-20T08:41:54;95347.69;;;-0.51;84.25
13041;BME280;6587;42.728;23.288;2023-12-20T08:44:21;95351.69;;;-0.62;84.12
13041;BME280;6587;42.728;23.288;2023-12-20T08:46:48;95344.44;;;-0.48;84.03
13041;BME280;6587;42.728;23.288;2023-12-20T08:49:15;95337.38;;;-0.47;84.09
13041;BME280;6587;42.728;23.288;2023-12-20T08:51:42;95337.78;;;-0.20;84.23
13041;BME280;6587;42.728;23.288;2023-12-20T08:54:09;95336.19;;;-0.12;83.91
13041;BME280;6587;42.728;23.288;2023-12-20T08:56:36;95330.97;;;-0.12;83.60
13041;BME280;6587;42.728;23.288;2023-12-20T08:59:04;95322.97;;;-0.16;83.81
13041;BME280;6587;42.728;23.288;2023-12-20T09:01:31;95318.63;;;-0.03;83.69
13041;BME280;6587;42.728;23.288;2023-12-20T09:04:00;95307.13;;;-0.11;83.23
13041;BME280;6587;42.728;23.288;2023-12-20T09:06:27;95302.56;;;-0.22;83.56
13041;BME280;6587;42.728;23.288;2023-12-20T09:08:54;95299.25;;;-0.11;83.74
13041;BME280;6587;42.728;23.288;2023-12-20T09:11:21;95282.88;;;0.10;83.71
13041;BME280;6587;42.728;23.288;2023-12-20T09:13:48;95282.75;;;0.06;83.05
13041;BME280;6587;42.728;23.288;2023-12-20T09:16:16;95275.84;;;0.02;83.35
13041;BME280;6587;42.728;23.288;2023-12-20T09:18:43;95276.94;;;0.30;83.56
13041;BME280;6587;42.728;23.288;2023-12-20T09:21:09;95273.47;;;0.17;83.98
13041;BME280;6587;42.728;23.288;2023-12-20T09:23:36;95262.69;;;0.19;82.91
13041;BME280;6587;42.728;23.288;2023-12-20T09:26:04;95251.50;;;0.30;83.89
13041;BME280;6587;42.728;23.288;2023-12-20T09:28:31;95238.75;;;0.49;83.16
13041;BME280;6587;42.728;23.288;2023-12-20T09:31:03;95236.66;;;0.43;83.71
13041;BME280;6587;42.728;23.288;2023-12-20T09:33:32;95229.31;;;0.57;83.10
13041;BME280;6587;42.728;23.288;2023-12-20T09:35:59;95234.03;;;0.43;83.39
13041;BME280;6587;42.728;23.288;2023-12-20T09:38:26;95229.56;;;0.43;82.95
13041;BME280;6587;42.728;23.288;2023-12-20T09:40:52;95225.09;;;0.44;82.84
13041;BME280;6587;42.728;23.288;2023-12-20T09:43:23;95213.16;;;0.55;83.26
13041;BME280;6587;42.728;23.288;2023-12-20T09:45:53;95203.63;;;0.71;83.06
13041;BME280;6587;42.728;23.288;2023-12-20T09:48:20;95206.84;;;0.56;82.99
13041;BME280;6587;42.728;23.288;2023-12-20T09:50:48;95209.75;;;0.13;83.10
13041;BME280;6587;42.728;23.288;2023-12-20T09:53:16;95204.91;;;0.44;84.11
13041;BME280;6587;42.728;23.288;2023-12-20T09:55:44;95198.66;;;0.57;84.13
13041;BME280;6587;42.728;23.288;2023-12-20T09:58:11;95201.66;;;0.68;83.60
13041;BME280;6587;42.728;23.288;2023-12-20T10:00:38;95187.69;;;0.43;83.59
13041;BME280;6587;42.728;23.288;2023-12-20T10:03:06;95193.88;;;0.59;83.71
13041;BME280;6587;42.728;23.288;2023-12-20T10:05:34;95190.44;;;0.67;83.54
13041;BME280;6587;42.728;23.288;2023-12-20T10:08:02;95179.50;;;0.65;84.19
13041;BME280;6587;42.728;23.288;2023-12-20T10:10:29;95178.41;;;0.99;83.87
13041;BME280;6587;42.728;23.288;2023-12-20T10:13:03;95175.88;;;1.35;83.37
13041;BME280;6587;42.728;23.288;2023-12-20T10:15:32;95175.78;;;1.55;82.50
13041;BME280;6587;42.728;23.288;2023-12-20T10:17:59;95170.25;;;1.69;81.54
13041;BME280;6587;42.728;23.288;2023-12-20T10:20:27;95166.72;;;2.01;80.93
13041;BME280;6587;42.728;23.288;2023-12-20T10:22:56;95161.25;;;2.06;79.41
13041;BME280;6587;42.728;23.288;2023-12-20T10:25:25;95145.97;;;2.36;79.10
13041;BME280;6587;42.728;23.288;2023-12-20T10:28:09;95141.81;;;4.68;75.04
13041;BME280;6587;42.728;23.288;2023-12-20T10:30:36;95143.09;;;6.95;67.19
13041;BME280;6587;42.728;23.288;2023-12-20T10:33:03;95135.84;;;7.65;63.94
13041;BME280;6587;42.728;23.288;2023-12-20T10:35:29;95131.91;;;8.50;59.92
13041;BME280;6587;42.728;23.288;2023-12-20T10:37:56;95126.09;;;9.12;57.48
13041;BME280;6587;42.728;23.288;2023-12-20T10:40:27;95122.75;;;9.43;53.55
13041;BME280;6587;42.728;23.288;2023-12-20T10:42:56;95110.91;;;9.16;54.68
13041;BME280;6587;42.728;23.288;2023-12-20T10:45:23;95112.13;;;10.21;52.79
13041;BME280;6587;42.728;23.288;2023-12-20T10:47:50;95109.78;;;9.10;53.91
13041;BME280;6587;42.728;23.288;2023-12-20T10:50:18;95091.25;;;9.42;53.25
13041;BME280;6587;42.728;23.288;2023-12-20T10:52:47;95097.66;;;10.39;51.57
13041;BME280;6587;42.728;23.288;2023-12-20T10:55:14;95090.16;;;11.68;48.06
13041;BME280;6587;42.728;23.288;2023-12-20T10:57:42;95093.81;;;11.34;46.95
13041;BME280;6587;42.728;23.288;2023-12-20T11:00:17;95090.63;;;13.88;44.55
13041;BME280;6587;42.728;23.288;2023-12-20T11:02:45;95087.13;;;15.15;41.68
13041;BME280;6587;42.728;23.288;2023-12-20T11:05:22;95083.66;;;14.79;40.43
13041;BME280;6587;42.728;23.288;2023-12-20T11:07:57;95071.66;;;15.75;38.74
13041;BME280;6587;42.728;23.288;2023-12-20T11:10:31;95065.63;;;14.99;39.64
13041;BME280;6587;42.728;23.288;2023-12-20T11:13:06;95061.19;;;13.88;40.29
13041;BME280;6587;42.728;23.288;2023-12-20T11:15:36;95052.94;;;15.87;38.89
13041;BME280;6587;42.728;23.288;2023-12-20T11:18:04;95058.28;;;17.05;36.75
13041;BME280;6587;42.728;23.288;2023-12-20T11:20:38;95050.28;;;15.35;37.52
13041;BME280;6587;42.728;23.288;2023-12-20T11:23:06;95042.63;;;12.37;42.50
13041;BME280;6587;42.728;23.288;2023-12-20T11:25:46;95033.84;;;10.29;46.69
13041;BME280;6587;42.728;23.288;2023-12-20T11:28:15;95032.38;;;9.12;50.24
13041;BME280;6587;42.728;23.288;2023-12-20T11:30:47;95026.59;;;8.57;52.83
13041;BME280;6587;42.728;23.288;2023-12-20T11:33:14;95014.28;;;8.21;53.36
13041;BME280;6587;42.728;23.288;2023-12-20T11:35:42;95008.22;;;7.49;54.99
13041;BME280;6587;42.728;23.288;2023-12-20T11:38:09;95012.94;;;6.42;57.49
13041;BME280;6587;42.728;23.288;2023-12-20T11:40:36;94997.59;;;6.58;58.78
13041;BME280;6587;42.728;23.288;2023-12-20T11:43:04;94994.16;;;6.94;58.35
13041;BME280;6587;42.728;23.288;2023-12-20T11:45:33;94991.38;;;8.67;55.49
13041;BME280;6587;42.728;23.288;2023-12-20T11:48:01;94978.97;;;10.56;50.71
13041;BME280;6587;42.728;23.288;2023-12-20T11:50:29;94974.34;;;8.82;52.09
13041;BME280;6587;42.728;23.288;2023-12-20T11:52:56;94971.53;;;7.51;56.85
13041;BME280;6587;42.728;23.288;2023-12-20T11:55:23;94968.81;;;7.40;56.42
13041;BME280;6587;42.728;23.288;2023-12-20T11:57:51;94957.38;;;6.38;58.96
13041;BME280;6587;42.728;23.288;2023-12-20T12:00:18;94961.63;;;5.54;61.55
13041;BME280;6587;42.728;23.288;2023-12-20T12:02:56;94950.63;;;7.35;58.91
13041;BME280;6587;42.728;23.288;2023-12-20T12:05:23;94955.28;;;7.56;57.72
13041;BME280;6587;42.728;23.288;2023-12-20T12:07:51;94942.00;;;7.49;57.15
13041;BME280;6587;42.728;23.288;2023-12-20T12:10:18;94938.69;;;7.66;57.84
13041;BME280;6587;42.728;23.288;2023-12-20T12:12:46;94933.09;;;7.85;56.22
13041;BME280;6587;42.728;23.288;2023-12-20T12:15:14;94924.63;;;9.57;53.66
13041;BME280;6587;42.728;23.288;2023-12-20T12:17:41;94918.59;;;10.46;51.78
13041;BME280;6587;42.728;23.288;2023-12-20T12:20:10;94909.91;;;10.31;50.72
13041;BME280;6587;42.728;23.288;2023-12-20T12:22:38;94906.50;;;11.74;48.87
13041;BME280;6587;42.728;23.288;2023-12-20T12:25:17;94911.88;;;13.60;43.93
13041;BME280;6587;42.728;23.288;2023-12-20T12:27:44;94902.47;;;13.52;43.44
13041;BME280;6587;42.728;23.288;2023-12-20T12:30:11;94918.34;;;13.16;44.02
13041;BME280;6587;42.728;23.288;2023-12-20T12:32:39;94919.47;;;13.42;43.58
13041;BME280;6587;42.728;23.288;2023-12-20T12:35:07;94916.56;;;11.96;44.79
13041;BME280;6587;42.728;23.288;2023-12-20T12:37:37;94915.28;;;11.30;48.08
13041;BME280;6587;42.728;23.288;2023-12-20T12:40:06;94916.53;;;11.59;47.66
13041;BME280;6587;42.728;23.288;2023-12-20T12:42:33;94910.31;;;10.88;48.67
13041;BME280;6587;42.728;23.288;2023-12-20T12:44:59;94912.72;;;10.68;49.18
13041;BME280;6587;42.728;23.288;2023-12-20T12:47:26;94905.13;;;10.67;49.18
13041;BME280;6587;42.728;23.288;2023-12-20T12:49:53;94901.88;;;10.96;49.45
13041;BME280;6587;42.728;23.288;2023-12-20T12:52:20;94899.81;;;11.55;47.89
13041;BME280;6587;42.728;23.288;2023-12-20T12:54:49;94893.25;;;11.26;47.42
13041;BME280;6587;42.728;23.288;2023-12-20T12:57:16;94893.47;;;9.68;49.64
13041;BME280;6587;42.728;23.288;2023-12-20T12:59:43;94893.94;;;8.71;52.38
13041;BME280;6587;42.728;23.288;2023-12-20T13:02:11;94898.88;;;8.90;53.25
13041;BME280;6587;42.728;23.288;2023-12-20T13:04:38;94900.38;;;8.60;53.21